createdAt,value
2023-05-08T00:00:26.158Z,12.11
2023-05-08T00:02:52.908Z,12.09
2023-05-08T00:05:19.955Z,12.01
2023-05-08T00:07:46.902Z,11.98
2023-05-08T00:10:13.703Z,11.92
2023-05-08T00:12:40.678Z,11.73
2023-05-08T00:15:09.010Z,11.50
2023-05-08T00:17:38.362Z,11.28
2023-05-08T00:20:05.674Z,11.37
2023-05-08T00:22:32.766Z,11.52
2023-05-08T00:24:59.517Z,11.42
2023-05-08T00:27:26.396Z,11.50
2023-05-08T00:29:53.348Z,11.11
2023-05-08T00:32:20.231Z,11.39
2023-05-08T00:34:46.978Z,11.41
2023-05-08T00:37:13.739Z,11.44
2023-05-08T00:39:40.531Z,11.42
2023-05-08T00:42:07.360Z,11.35
2023-05-08T00:44:34.020Z,11.53
2023-05-08T00:47:00.960Z,11.46
2023-05-08T00:49:28.137Z,11.60
2023-05-08T00:51:56.137Z,11.51
2023-05-08T00:54:23.738Z,11.33
2023-05-08T00:56:52.129Z,11.20
2023-05-08T00:59:21.330Z,11.04
2023-05-08T01:01:49.409Z,11.50
2023-05-08T01:04:21.774Z,11.43
2023-05-08T01:06:49.077Z,11.36
2023-05-08T01:09:15.930Z,11.37
2023-05-08T01:11:52.860Z,11.05
2023-05-08T01:14:31.739Z,11.33
2023-05-08T01:17:13.892Z,11.28
2023-05-08T01:19:55.386Z,11.26
2023-05-08T01:22:44.303Z,11.04
2023-05-08T01:25:46.107Z,10.95
2023-05-08T01:28:47.082Z,10.85
2023-05-08T01:31:45.762Z,10.34
2023-05-08T01:34:20.289Z,10.38
2023-05-08T01:36:46.965Z,10.77
2023-05-08T01:39:32.296Z,10.81
2023-05-08T01:42:08.534Z,10.80
2023-05-08T01:44:47.335Z,10.75
2023-05-08T01:47:16.083Z,10.80
2023-05-08T01:49:46.797Z,10.80
2023-05-08T01:52:32.169Z,10.39
2023-05-08T01:55:12.521Z,10.83
2023-05-08T01:57:49.456Z,10.78
2023-05-08T02:00:19.859Z,10.49
2023-05-08T02:02:49.762Z,10.42
2023-05-08T02:05:18.498Z,10.70
2023-05-08T02:07:47.215Z,10.76
2023-05-08T02:10:15.724Z,10.23
2023-05-08T02:12:44.199Z,10.61
2023-05-08T02:15:15.180Z,10.65
2023-05-08T02:17:44.292Z,10.67
2023-05-08T02:20:15.244Z,10.47
2023-05-08T02:22:49.413Z,9.96
2023-05-08T02:25:17.024Z,9.88
2023-05-08T02:27:46.669Z,10.44
2023-05-08T02:30:18.348Z,9.87
2023-05-08T02:32:47.836Z,9.58
2023-05-08T02:35:17.165Z,10.27
2023-05-08T02:37:46.776Z,10.18
2023-05-08T02:40:17.468Z,10.37
2023-05-08T02:42:45.901Z,10.16
2023-05-08T02:45:13.157Z,10.00
2023-05-08T02:47:47.712Z,10.12
2023-05-08T02:50:27.243Z,10.00
2023-05-08T02:53:03.195Z,9.64
2023-05-08T02:55:43.161Z,10.09
2023-05-08T02:58:37.783Z,10.13
2023-05-08T03:01:17.741Z,9.73
2023-05-08T03:03:46.893Z,9.99
2023-05-08T03:06:20.887Z,9.97
2023-05-08T03:08:50.464Z,9.88
2023-05-08T03:11:21.833Z,10.10
2023-05-08T03:13:51.576Z,10.15
2023-05-08T03:16:23.292Z,10.16
2023-05-08T03:18:54.186Z,10.26
2023-05-08T03:21:22.876Z,10.37
2023-05-08T03:23:53.325Z,10.44
2023-05-08T03:26:21.507Z,10.43
2023-05-08T03:28:53.822Z,10.44
2023-05-08T03:31:22.516Z,10.75
2023-05-08T03:33:53.458Z,10.85
2023-05-08T03:36:21.526Z,10.97
2023-05-08T03:38:49.084Z,10.86
2023-05-08T03:41:15.949Z,11.29
2023-05-08T03:43:43.765Z,11.42
2023-05-08T03:46:11.322Z,11.52
2023-05-08T03:48:38.961Z,11.84
2023-05-08T03:51:05.852Z,11.95
2023-05-08T03:53:33.541Z,11.86
2023-05-08T03:56:01.284Z,12.16
2023-05-08T03:58:54.764Z,12.22
2023-05-08T04:01:40.958Z,12.40
2023-05-08T04:04:17.629Z,12.62
2023-05-08T04:06:50.357Z,12.79
2023-05-08T04:09:19.980Z,12.88
2023-05-08T04:12:08.805Z,12.93
2023-05-08T04:15:01.462Z,12.92
2023-05-08T04:17:57.530Z,13.17
2023-05-08T04:20:27.991Z,13.35
2023-05-08T04:22:55.860Z,13.35
2023-05-08T04:25:23.041Z,13.34
2023-05-08T04:27:55.072Z,13.26
2023-05-08T04:30:21.898Z,13.13
2023-05-08T04:32:49.587Z,13.15
2023-05-08T04:35:16.400Z,13.15
2023-05-08T04:37:44.044Z,12.75
2023-05-08T04:40:11.132Z,13.17
2023-05-08T04:42:39.645Z,13.14
2023-05-08T04:45:07.116Z,13.08
2023-05-08T04:47:33.831Z,13.52
2023-05-08T04:50:02.200Z,13.83
2023-05-08T04:52:29.977Z,14.46
2023-05-08T04:54:56.735Z,14.84
2023-05-08T04:57:23.407Z,15.33
2023-05-08T04:59:51.401Z,15.60
2023-05-08T05:02:18.401Z,15.75
2023-05-08T05:04:45.163Z,16.37
2023-05-08T05:07:15.730Z,16.65
2023-05-08T05:09:42.564Z,16.91
2023-05-08T05:12:09.238Z,16.71
2023-05-08T05:14:39.928Z,16.87
2023-05-08T05:17:06.864Z,16.71
2023-05-08T05:19:33.709Z,16.78
2023-05-08T05:22:00.863Z,17.07
2023-05-08T05:24:28.098Z,17.58
2023-05-08T05:26:55.055Z,17.37
2023-05-08T05:29:21.918Z,17.89
2023-05-08T05:31:49.945Z,17.93
2023-05-08T05:34:16.743Z,18.05
2023-05-08T05:36:43.734Z,17.83
2023-05-08T05:39:10.678Z,17.92
2023-05-08T05:41:37.447Z,18.24
2023-05-08T05:44:04.400Z,18.44
2023-05-08T05:46:32.856Z,18.31
2023-05-08T05:48:59.963Z,18.35
2023-05-08T05:51:27.723Z,18.63
2023-05-08T05:53:54.503Z,18.50
2023-05-08T05:56:21.889Z,18.49
2023-05-08T05:58:49.132Z,18.47
2023-05-08T06:01:17.555Z,18.46
2023-05-08T06:03:44.487Z,18.22
2023-05-08T06:06:11.375Z,18.20
2023-05-08T06:08:38.025Z,18.04
2023-05-08T06:11:04.775Z,18.09
2023-05-08T06:13:32.842Z,17.78
2023-05-08T06:15:59.691Z,17.53
2023-05-08T06:18:26.760Z,17.23
2023-05-08T06:21:00.098Z,17.25
2023-05-08T06:23:30.349Z,17.22
2023-05-08T06:25:57.573Z,17.12
2023-05-08T06:28:26.185Z,16.40
2023-05-08T06:30:53.368Z,16.52
2023-05-08T06:33:24.695Z,16.87
2023-05-08T06:35:53.631Z,17.16
2023-05-08T06:38:20.736Z,17.24
2023-05-08T06:40:50.523Z,17.76
2023-05-08T06:43:17.882Z,17.58
2023-05-08T06:45:47.566Z,17.88
2023-05-08T06:48:14.731Z,18.03
2023-05-08T06:50:43.102Z,17.60
2023-05-08T06:53:11.071Z,18.01
2023-05-08T06:55:38.013Z,17.90
2023-05-08T06:58:04.888Z,17.97
2023-05-08T07:00:31.860Z,17.52
2023-05-08T07:02:58.639Z,17.87
2023-05-08T07:05:25.410Z,17.92
2023-05-08T07:07:54.399Z,18.07
2023-05-08T07:10:23.242Z,18.43
2023-05-08T07:12:50.297Z,18.41
2023-05-08T07:15:25.367Z,17.69
2023-05-08T07:17:54.057Z,17.99
2023-05-08T07:20:21.795Z,17.93
2023-05-08T07:22:49.365Z,18.07
2023-05-08T07:25:17.873Z,18.22
2023-05-08T07:27:46.218Z,17.50
2023-05-08T07:30:14.936Z,17.97
2023-05-08T07:32:42.111Z,18.13
2023-05-08T07:35:11.578Z,18.49
2023-05-08T07:37:39.914Z,18.91
2023-05-08T07:40:07.231Z,19.13
2023-05-08T07:42:41.670Z,19.37
2023-05-08T07:45:10.661Z,19.68
2023-05-08T07:47:50.740Z,19.55
2023-05-08T07:50:18.494Z,20.12
2023-05-08T07:52:47.918Z,19.60
2023-05-08T07:55:16.790Z,20.16
2023-05-08T07:57:44.597Z,20.20
2023-05-08T08:00:14.752Z,20.41
2023-05-08T08:02:45.641Z,19.83
2023-05-08T08:05:13.735Z,19.83
2023-05-08T08:07:41.065Z,19.27
2023-05-08T08:10:09.316Z,19.91
2023-05-08T08:12:36.293Z,20.19
2023-05-08T08:15:03.800Z,20.10
2023-05-08T08:17:30.460Z,20.13
2023-05-08T08:19:57.447Z,20.22
2023-05-08T08:22:25.518Z,20.01
2023-05-08T08:24:55.150Z,20.11
2023-05-08T08:27:22.251Z,20.05
2023-05-08T08:29:48.928Z,20.43
2023-05-08T08:32:15.582Z,20.14
2023-05-08T08:34:42.464Z,20.21
2023-05-08T08:37:09.166Z,20.33
2023-05-08T08:39:35.931Z,20.66
2023-05-08T08:42:02.895Z,20.68
2023-05-08T08:44:30.191Z,20.88
2023-05-08T08:47:00.008Z,20.96
2023-05-08T08:49:34.791Z,21.17
2023-05-08T08:52:19.894Z,21.39
2023-05-08T08:54:47.207Z,21.57
2023-05-08T08:57:18.377Z,21.45
2023-05-08T08:59:45.400Z,21.47
2023-05-08T09:02:17.896Z,21.26
2023-05-08T09:04:45.508Z,20.72
2023-05-08T09:07:12.632Z,20.87
2023-05-08T09:09:44.613Z,20.99
2023-05-08T09:12:13.003Z,21.14
2023-05-08T09:14:39.877Z,21.17
2023-05-08T09:17:06.649Z,21.09
2023-05-08T09:19:34.807Z,21.13
2023-05-08T09:22:04.615Z,20.92
2023-05-08T09:24:57.364Z,20.80
2023-05-08T09:27:26.399Z,20.65
2023-05-08T09:30:10.871Z,20.80
2023-05-08T09:32:40.239Z,20.81
2023-05-08T09:35:09.016Z,20.63
2023-05-08T09:37:39.877Z,20.49
2023-05-08T09:40:21.543Z,20.70
2023-05-08T09:42:50.411Z,20.88
2023-05-08T09:45:35.509Z,20.97
2023-05-08T09:48:02.487Z,21.44
2023-05-08T09:50:29.153Z,21.05
2023-05-08T09:52:55.870Z,21.25
2023-05-08T09:55:22.682Z,21.73
2023-05-08T09:57:54.510Z,21.85
2023-05-08T10:00:21.325Z,21.90
2023-05-08T10:03:01.580Z,21.44
2023-05-08T10:05:34.823Z,21.63
2023-05-08T10:08:21.733Z,21.69
2023-05-08T10:10:48.714Z,21.80
2023-05-08T10:13:15.945Z,21.20
2023-05-08T10:15:43.831Z,21.38
2023-05-08T10:18:12.196Z,21.37
2023-05-08T10:20:41.082Z,21.29
2023-05-08T10:23:11.495Z,21.50
2023-05-08T10:25:45.548Z,21.11
2023-05-08T10:28:40.697Z,21.23
2023-05-08T10:31:08.254Z,20.98
2023-05-08T10:33:39.338Z,20.94
2023-05-08T10:36:07.310Z,21.15
2023-05-08T10:38:34.842Z,21.53
2023-05-08T10:41:02.210Z,21.84
2023-05-08T10:43:31.099Z,21.93
2023-05-08T10:46:02.142Z,22.02
2023-05-08T10:49:05.711Z,21.96
2023-05-08T10:51:47.149Z,22.01
2023-05-08T10:54:34.242Z,21.87
2023-05-08T10:57:11.767Z,22.23
2023-05-08T10:59:38.813Z,21.88
2023-05-08T11:02:07.393Z,21.63
2023-05-08T11:04:35.346Z,21.82
2023-05-08T11:07:03.236Z,21.95
2023-05-08T11:09:45.220Z,21.89
2023-05-08T11:12:20.708Z,22.19
2023-05-08T11:14:57.562Z,22.28
2023-05-08T11:17:25.596Z,22.36
2023-05-08T11:19:58.226Z,22.36
2023-05-08T11:22:34.731Z,22.36
2023-05-08T11:25:09.251Z,22.31
2023-05-08T11:27:51.319Z,22.46
2023-05-08T11:30:34.979Z,22.30
2023-05-08T11:35:51.800Z,23.02
2023-05-08T11:38:24.018Z,22.96
2023-05-08T11:40:59.895Z,23.34
2023-05-08T11:43:36.893Z,23.42
2023-05-08T11:46:06.716Z,23.57
2023-05-08T11:48:34.407Z,23.56
2023-05-08T11:51:02.474Z,24.38
2023-05-08T11:53:33.786Z,24.01
2023-05-08T11:56:01.647Z,23.25
2023-05-08T11:58:28.878Z,23.63
2023-05-08T12:00:58.869Z,23.81
2023-05-08T12:03:26.824Z,24.17
2023-05-08T12:05:58.359Z,24.76
2023-05-08T12:08:26.713Z,24.40
2023-05-08T12:11:00.567Z,23.79
2023-05-08T12:13:39.049Z,24.23
2023-05-08T12:16:22.354Z,24.09
2023-05-08T12:18:53.878Z,24.48
2023-05-08T12:21:21.662Z,23.47
2023-05-08T12:23:49.417Z,23.53
2023-05-08T12:26:16.348Z,23.85
2023-05-08T12:28:49.868Z,23.83
2023-05-08T12:31:19.160Z,23.80
2023-05-08T12:33:47.044Z,24.01
2023-05-08T12:36:19.999Z,23.72
2023-05-08T12:38:47.688Z,23.40
2023-05-08T12:41:28.592Z,23.13
2023-05-08T12:43:57.632Z,23.30
2023-05-08T12:46:25.818Z,22.73
2023-05-08T12:49:02.171Z,23.11
2023-05-08T12:51:31.974Z,23.17
2023-05-08T12:54:13.569Z,23.34
2023-05-08T12:59:47.216Z,23.18
2023-05-08T13:02:21.297Z,24.09
2023-05-08T13:05:03.906Z,23.31
2023-05-08T13:07:35.164Z,23.38
2023-05-08T13:10:06.126Z,23.15
2023-05-08T13:12:39.101Z,23.16
2023-05-08T13:15:07.231Z,22.77
2023-05-08T13:17:38.195Z,22.07
2023-05-08T13:20:10.653Z,20.87
2023-05-08T13:22:37.492Z,20.52
2023-05-08T13:25:04.644Z,20.02
2023-05-08T13:27:31.351Z,19.65
2023-05-08T13:29:58.026Z,19.31
2023-05-08T13:32:24.876Z,19.31
2023-05-08T13:34:53.148Z,19.04
2023-05-08T13:37:26.916Z,18.49
2023-05-08T13:39:53.759Z,19.09
2023-05-08T13:42:20.822Z,18.78
2023-05-08T13:44:47.616Z,19.10
2023-05-08T13:47:14.478Z,19.34
2023-05-08T13:49:41.149Z,19.08
2023-05-08T13:52:07.776Z,19.18
2023-05-08T13:54:34.518Z,19.16
2023-05-08T13:57:02.741Z,19.05
2023-05-08T13:59:31.536Z,18.55
2023-05-08T14:01:58.572Z,18.25
2023-05-08T14:04:25.464Z,17.80
2023-05-08T14:06:52.268Z,17.68
2023-05-08T14:09:19.251Z,17.41
2023-05-08T14:11:45.970Z,17.43
2023-05-08T14:14:12.817Z,17.48
2023-05-08T14:16:39.863Z,17.38
2023-05-08T14:19:06.707Z,16.99
2023-05-08T14:21:34.799Z,17.45
2023-05-08T14:24:02.658Z,17.55
2023-05-08T14:26:29.405Z,17.18
2023-05-08T14:28:56.292Z,17.45
2023-05-08T14:31:23.526Z,17.30
2023-05-08T14:33:50.282Z,16.58
2023-05-08T14:36:17.105Z,17.14
2023-05-08T14:38:44.163Z,16.93
2023-05-08T14:41:10.942Z,16.95
2023-05-08T14:43:37.773Z,16.33
2023-05-08T14:46:04.980Z,16.51
2023-05-08T14:48:31.805Z,16.37
2023-05-08T14:50:58.824Z,16.33
2023-05-08T14:53:25.800Z,16.43
2023-05-08T14:55:53.107Z,16.48
2023-05-08T14:58:20.068Z,16.37
2023-05-08T15:00:47.154Z,16.23
2023-05-08T15:03:14.134Z,15.69
2023-05-08T15:05:46.139Z,16.10
2023-05-08T15:08:13.677Z,16.26
2023-05-08T15:10:43.834Z,16.08
2023-05-08T15:13:11.063Z,15.11
2023-05-08T15:15:41.425Z,15.50
2023-05-08T15:18:20.342Z,15.23
2023-05-08T15:21:00.113Z,15.07
2023-05-08T15:23:31.783Z,15.13
2023-05-08T15:26:08.435Z,14.97
2023-05-08T15:28:41.525Z,15.63
2023-05-08T15:31:09.200Z,15.18
2023-05-08T15:33:36.804Z,15.15
2023-05-08T15:36:14.185Z,15.76
2023-05-08T15:38:42.560Z,15.09
2023-05-08T15:41:15.748Z,15.74
2023-05-08T15:43:48.152Z,14.92
2023-05-08T15:46:18.851Z,15.75
2023-05-08T15:48:54.804Z,15.22
2023-05-08T15:51:26.882Z,15.66
2023-05-08T15:53:54.598Z,15.56
2023-05-08T15:56:26.330Z,15.30
2023-05-08T15:58:56.718Z,15.19
2023-05-08T16:01:27.116Z,15.32
2023-05-08T16:04:04.241Z,15.53
2023-05-08T16:06:32.933Z,15.52
2023-05-08T16:09:03.879Z,15.25
2023-05-08T16:11:37.631Z,14.71
2023-05-08T16:14:04.482Z,14.69
2023-05-08T16:16:31.512Z,15.44
2023-05-08T16:18:58.372Z,15.41
2023-05-08T16:21:27.575Z,15.32
2023-05-08T16:23:58.979Z,15.26
2023-05-08T16:26:26.502Z,14.71
2023-05-08T16:28:53.427Z,15.24
2023-05-08T16:31:20.287Z,14.73
2023-05-08T16:33:46.987Z,15.27
2023-05-08T16:36:13.744Z,15.17
2023-05-08T16:38:40.581Z,15.12
2023-05-08T16:41:10.158Z,14.93
2023-05-08T16:43:37.690Z,14.79
2023-05-08T16:46:08.463Z,14.15
2023-05-08T16:48:35.730Z,14.99
2023-05-08T16:51:02.839Z,14.62
2023-05-08T16:53:29.680Z,14.74
2023-05-08T16:55:56.542Z,14.58
2023-05-08T16:58:23.429Z,14.46
2023-05-08T17:00:50.235Z,14.35
2023-05-08T17:03:17.212Z,14.42
2023-05-08T17:05:44.121Z,14.28
2023-05-08T17:08:12.168Z,14.04
2023-05-08T17:10:39.759Z,14.13
2023-05-08T17:13:08.218Z,13.95
2023-05-08T17:15:35.105Z,13.95
2023-05-08T17:18:04.879Z,13.50
2023-05-08T17:20:32.579Z,13.42
2023-05-08T17:22:59.589Z,13.69
2023-05-08T17:25:27.030Z,13.51
2023-05-08T17:27:53.844Z,13.66
2023-05-08T17:30:20.854Z,13.51
2023-05-08T17:32:51.802Z,12.87
2023-05-08T17:35:18.943Z,13.31
2023-05-08T17:37:46.054Z,13.06
2023-05-08T17:40:13.359Z,13.43
2023-05-08T17:42:42.590Z,13.38
2023-05-08T17:45:12.292Z,13.39
2023-05-08T17:47:42.279Z,13.32
2023-05-08T17:50:09.985Z,13.51
2023-05-08T17:52:37.332Z,13.18
2023-05-08T17:55:04.278Z,13.57
2023-05-08T17:57:31.213Z,13.58
2023-05-08T17:59:58.034Z,13.46
2023-05-08T18:02:25.026Z,13.43
2023-05-08T18:04:52.070Z,13.49
2023-05-08T18:07:18.800Z,13.34
2023-05-08T18:09:45.620Z,13.28
2023-05-08T18:12:12.350Z,13.53
2023-05-08T18:14:39.126Z,13.43
2023-05-08T18:17:07.575Z,12.90
2023-05-08T18:19:34.405Z,13.19
2023-05-08T18:22:01.334Z,13.59
2023-05-08T18:24:29.568Z,13.53
2023-05-08T18:26:56.367Z,13.49
2023-05-08T18:29:23.694Z,13.25
2023-05-08T18:31:50.540Z,13.44
2023-05-08T18:34:20.078Z,13.49
2023-05-08T18:36:46.861Z,13.59
2023-05-08T18:39:13.572Z,13.32
2023-05-08T18:41:40.404Z,13.62
2023-05-08T18:44:07.295Z,13.72
2023-05-08T18:46:36.428Z,13.81
2023-05-08T18:49:05.617Z,13.80
2023-05-08T18:51:32.335Z,13.84
2023-05-08T18:53:59.826Z,13.84
2023-05-08T18:56:26.574Z,13.88
2023-05-08T18:58:53.289Z,13.96
2023-05-08T19:01:21.472Z,14.01
2023-05-08T19:03:48.502Z,13.94
2023-05-08T19:06:15.894Z,14.00
2023-05-08T19:08:44.102Z,13.91
2023-05-08T19:11:10.898Z,14.01
2023-05-08T19:13:44.244Z,14.00
2023-05-08T19:16:12.348Z,13.99
2023-05-08T19:18:39.174Z,13.77
2023-05-08T19:21:06.863Z,13.77
2023-05-08T19:23:33.727Z,14.12
2023-05-08T19:26:00.546Z,14.08
2023-05-08T19:28:27.306Z,14.11
2023-05-08T19:30:54.283Z,14.06
2023-05-08T19:33:24.193Z,14.01
2023-05-08T19:35:54.697Z,13.97
2023-05-08T19:38:21.549Z,14.06
2023-05-08T19:40:56.994Z,13.96
2023-05-08T19:43:28.119Z,13.57
2023-05-08T19:45:55.710Z,13.89
2023-05-08T19:48:22.868Z,13.99
2023-05-08T19:50:51.374Z,13.69
2023-05-08T19:53:23.785Z,13.65
2023-05-08T19:55:50.694Z,13.92
2023-05-08T19:58:20.900Z,13.76
2023-05-08T20:03:44.186Z,13.65
2023-05-08T20:06:13.962Z,13.73
2023-05-08T20:08:41.147Z,13.77
2023-05-08T20:11:11.835Z,13.67
2023-05-08T20:13:39.379Z,13.85
2023-05-08T20:16:07.017Z,13.83
2023-05-08T20:18:35.339Z,13.58
2023-05-08T20:21:02.666Z,13.92
2023-05-08T20:23:31.477Z,13.48
2023-05-08T20:25:58.814Z,13.41
2023-05-08T20:28:26.340Z,13.24
2023-05-08T20:30:57.675Z,12.84
2023-05-08T20:33:24.375Z,13.39
2023-05-08T20:35:52.070Z,13.61
2023-05-08T20:38:19.120Z,13.64
2023-05-08T20:40:46.334Z,13.60
2023-05-08T20:43:13.018Z,13.45
2023-05-08T20:45:39.682Z,13.55
2023-05-08T20:48:06.462Z,13.38
2023-05-08T20:50:33.348Z,13.17
2023-05-08T20:53:01.509Z,13.32
2023-05-08T20:55:28.348Z,13.38
2023-05-08T20:57:54.960Z,13.33
2023-05-08T21:00:21.630Z,13.34
2023-05-08T21:02:48.400Z,13.35
2023-05-08T21:05:15.440Z,13.26
2023-05-08T21:07:42.587Z,13.27
2023-05-08T21:10:09.658Z,13.10
2023-05-08T21:12:36.611Z,13.06
2023-05-08T21:15:10.159Z,13.03
2023-05-08T21:17:38.100Z,12.79
2023-05-08T21:20:06.750Z,13.01
2023-05-08T21:26:21.141Z,12.77
2023-05-08T21:29:09.223Z,12.41
2023-05-08T21:35:12.227Z,12.37
2023-05-08T21:37:39.814Z,12.52
2023-05-08T21:40:07.622Z,12.92
2023-05-08T21:42:35.641Z,12.46
2023-05-08T21:45:12.413Z,12.68
2023-05-08T21:52:58.108Z,12.71
2023-05-08T21:55:25.222Z,12.34
2023-05-08T21:57:52.084Z,12.47
2023-05-08T22:00:19.268Z,12.48
2023-05-08T22:02:46.032Z,12.44
2023-05-08T22:05:13.153Z,12.50
2023-05-08T22:07:40.093Z,12.32
2023-05-08T22:10:09.320Z,12.53
2023-05-08T22:12:36.225Z,12.37
2023-05-08T22:15:07.535Z,12.57
2023-05-08T22:17:39.617Z,12.27
2023-05-08T22:20:08.527Z,12.29
2023-05-08T22:22:35.161Z,12.30
2023-05-08T22:25:02.089Z,11.89
2023-05-08T22:27:28.743Z,12.50
2023-05-08T22:29:55.714Z,12.18
2023-05-08T22:32:22.937Z,12.22
2023-05-08T22:34:50.179Z,12.23
2023-05-08T22:37:20.067Z,11.70
2023-05-08T22:39:47.103Z,12.19
2023-05-08T22:42:14.550Z,11.96
2023-05-08T22:44:41.968Z,11.97
2023-05-08T22:47:09.505Z,12.05
2023-05-08T22:49:36.540Z,12.01
2023-05-08T22:52:03.181Z,12.14
2023-05-08T22:54:30.103Z,11.87
2023-05-08T22:56:56.979Z,12.27
2023-05-08T22:59:25.294Z,11.63
2023-05-08T23:01:52.389Z,11.68
2023-05-08T23:04:19.289Z,11.57
2023-05-08T23:06:46.037Z,12.12
2023-05-08T23:09:12.635Z,12.03
2023-05-08T23:11:39.381Z,11.84
2023-05-08T23:14:06.114Z,11.92
2023-05-08T23:16:32.869Z,11.74
2023-05-08T23:18:59.573Z,11.83
2023-05-08T23:21:26.751Z,11.66
2023-05-08T23:23:54.332Z,11.74
2023-05-08T23:26:21.557Z,11.74
2023-05-08T23:28:48.825Z,11.61
2023-05-08T23:31:17.043Z,11.66
2023-05-08T23:33:43.832Z,11.55
2023-05-08T23:36:10.558Z,11.29
2023-05-08T23:38:37.334Z,11.47
2023-05-08T23:41:04.076Z,11.49
2023-05-08T23:43:30.856Z,11.67
2023-05-08T23:45:58.191Z,11.53
2023-05-08T23:48:25.884Z,11.49
2023-05-08T23:50:52.550Z,11.37
2023-05-08T23:53:19.832Z,11.06
2023-05-08T23:55:49.855Z,11.56
2023-05-08T23:58:18.387Z,11.65
